createdAt,value
2018-07-05T00:02:01.126Z,15.30
2018-07-05T00:04:40.822Z,15.30
2018-07-05T00:07:20.404Z,15.30
2018-07-05T00:10:00.144Z,15.30
2018-07-05T00:12:39.794Z,15.40
2018-07-05T00:15:19.453Z,15.30
2018-07-05T00:17:59.044Z,15.10
2018-07-05T00:20:38.603Z,15.10
2018-07-05T00:23:18.357Z,15.00
2018-07-05T00:25:57.957Z,15.00
2018-07-05T00:28:37.602Z,15.00
2018-07-05T00:31:17.290Z,15.00
2018-07-05T00:33:57.092Z,14.90
2018-07-05T00:36:36.732Z,14.80
2018-07-05T00:39:16.440Z,14.80
2018-07-05T00:41:56.160Z,14.70
2018-07-05T00:44:35.776Z,14.70
2018-07-05T00:47:15.538Z,14.70
2018-07-05T00:49:55.609Z,14.70
2018-07-05T00:52:35.366Z,14.70
2018-07-05T00:55:15.139Z,14.80
2018-07-05T00:57:54.888Z,14.80
2018-07-05T01:00:34.814Z,14.70
2018-07-05T01:03:14.412Z,14.70
2018-07-05T01:05:54.178Z,14.70
2018-07-05T01:08:33.884Z,14.60
2018-07-05T01:11:13.593Z,14.50
2018-07-05T01:13:53.149Z,14.50
2018-07-05T01:16:32.672Z,14.50
2018-07-05T01:19:12.257Z,14.40
2018-07-05T01:21:51.922Z,14.40
2018-07-05T01:24:31.816Z,14.30
2018-07-05T01:27:11.497Z,14.40
2018-07-05T01:29:51.079Z,14.50
2018-07-05T01:32:30.687Z,14.60
2018-07-05T01:35:10.277Z,14.60
2018-07-05T01:37:49.936Z,14.60
2018-07-05T01:40:29.633Z,14.50
2018-07-05T01:43:09.454Z,14.40
2018-07-05T01:45:49.183Z,14.30
2018-07-05T01:48:28.831Z,14.20
2018-07-05T01:51:08.489Z,14.10
2018-07-05T01:53:48.238Z,14.00
2018-07-05T01:56:27.928Z,14.00
2018-07-05T01:59:07.433Z,14.00
2018-07-05T02:01:47.033Z,14.00
2018-07-05T02:04:26.677Z,14.00
2018-07-05T02:07:06.330Z,14.00
2018-07-05T02:09:45.953Z,14.00
2018-07-05T02:12:25.598Z,14.00
2018-07-05T02:15:05.241Z,14.00
2018-07-05T02:17:44.894Z,13.90
2018-07-05T02:20:24.528Z,13.80
2018-07-05T02:23:04.298Z,13.70
2018-07-05T02:25:44.024Z,13.70
2018-07-05T02:28:23.630Z,13.60
2018-07-05T02:31:03.425Z,13.50
2018-07-05T02:33:45.460Z,13.50
2018-07-05T02:36:25.141Z,13.50
2018-07-05T02:39:10.009Z,13.50
2018-07-05T02:41:49.674Z,13.50
2018-07-05T02:44:29.264Z,13.50
2018-07-05T02:47:08.883Z,13.50
2018-07-05T02:49:48.497Z,13.50
2018-07-05T02:52:28.222Z,13.40
2018-07-05T02:55:07.864Z,13.40
2018-07-05T02:57:47.964Z,13.40
2018-07-05T03:00:27.676Z,13.30
2018-07-05T03:03:07.288Z,13.30
2018-07-05T03:05:46.990Z,13.30
2018-07-05T03:08:26.915Z,13.40
2018-07-05T03:13:40.285Z,13.30
2018-07-05T03:16:20.021Z,13.30
2018-07-05T03:18:59.840Z,13.30
2018-07-05T03:21:39.485Z,13.20
2018-07-05T03:24:19.257Z,13.20
2018-07-05T03:26:58.965Z,13.30
2018-07-05T03:29:38.648Z,13.30
2018-07-05T03:32:18.186Z,13.30
2018-07-05T03:34:57.986Z,13.40
2018-07-05T03:37:37.798Z,13.40
2018-07-05T03:40:17.411Z,13.40
2018-07-05T03:45:30.922Z,13.40
2018-07-05T03:48:10.571Z,13.50
2018-07-05T03:50:50.337Z,13.50
2018-07-05T03:53:29.953Z,13.50
2018-07-05T03:56:09.577Z,13.50
2018-07-05T03:58:49.257Z,13.60
2018-07-05T04:01:28.823Z,13.70
2018-07-05T04:04:08.444Z,13.90
2018-07-05T04:06:48.166Z,13.90
2018-07-05T04:09:27.924Z,13.90
2018-07-05T04:12:07.660Z,14.00
2018-07-05T04:14:47.363Z,14.10
2018-07-05T04:17:27.092Z,14.00
2018-07-05T04:20:06.746Z,14.00
2018-07-05T04:22:46.366Z,14.10
2018-07-05T04:25:26.096Z,14.20
2018-07-05T04:28:05.784Z,14.30
2018-07-05T04:30:45.604Z,14.50
2018-07-05T04:33:25.290Z,14.50
2018-07-05T04:36:05.042Z,14.60
2018-07-05T04:38:44.597Z,14.80
2018-07-05T04:41:24.219Z,15.00
2018-07-05T04:44:03.885Z,15.20
2018-07-05T04:46:43.513Z,15.40
2018-07-05T04:49:23.236Z,15.60
2018-07-05T04:52:03.006Z,15.70
2018-07-05T04:54:42.800Z,15.90
2018-07-05T04:57:22.422Z,16.10
2018-07-05T05:00:02.280Z,16.30
2018-07-05T05:02:41.892Z,16.50
2018-07-05T05:05:21.552Z,16.80
2018-07-05T05:08:01.078Z,17.20
2018-07-05T05:10:40.718Z,17.40
2018-07-05T05:13:20.344Z,17.70
2018-07-05T05:15:59.913Z,18.10
2018-07-05T05:18:39.540Z,18.40
2018-07-05T05:21:19.263Z,18.90
2018-07-05T05:23:58.828Z,19.50
2018-07-05T05:26:38.463Z,19.90
2018-07-05T05:29:17.989Z,20.30
2018-07-05T05:31:57.563Z,21.00
2018-07-05T05:34:37.278Z,21.40
2018-07-05T05:37:17.050Z,21.90
2018-07-05T05:39:56.815Z,22.20
2018-07-05T05:42:36.456Z,22.70
2018-07-05T05:45:16.052Z,23.00
2018-07-05T05:47:55.777Z,23.90
2018-07-05T05:50:35.515Z,24.90
2018-07-05T05:53:15.128Z,26.10
2018-07-05T05:55:54.766Z,27.50
2018-07-05T05:58:34.354Z,28.50
2018-07-05T06:01:14.003Z,29.10
2018-07-05T06:03:53.646Z,29.60
2018-07-05T06:06:33.348Z,29.90
2018-07-05T06:09:13.122Z,30.70
2018-07-05T06:11:52.784Z,30.70
2018-07-05T06:14:32.540Z,30.50
2018-07-05T06:19:45.684Z,30.00
2018-07-05T06:22:25.327Z,30.10
2018-07-05T06:25:05.035Z,30.90
2018-07-05T06:27:44.806Z,31.30
2018-07-05T06:30:24.606Z,31.40
2018-07-05T06:33:04.398Z,31.20
2018-07-05T06:35:44.147Z,30.70
2018-07-05T06:38:23.755Z,31.00
2018-07-05T06:41:03.408Z,31.30
2018-07-05T06:43:43.159Z,32.40
2018-07-05T06:46:22.752Z,32.20
2018-07-05T06:49:02.423Z,32.10
2018-07-05T06:51:42.092Z,32.90
2018-07-05T06:54:21.785Z,32.90
2018-07-05T06:57:01.353Z,33.00
2018-07-05T06:59:41.031Z,33.80
2018-07-05T07:02:20.657Z,34.50
2018-07-05T07:05:00.601Z,35.00
2018-07-05T07:07:40.241Z,35.60
2018-07-05T07:10:19.942Z,36.50
2018-07-05T07:12:59.530Z,37.20
2018-07-05T07:15:39.190Z,36.70
2018-07-05T07:18:18.937Z,36.40
2018-07-05T07:20:58.625Z,35.80
2018-07-05T07:23:38.333Z,35.80
2018-07-05T07:26:17.988Z,35.70
2018-07-05T07:28:57.668Z,35.20
2018-07-05T07:31:37.428Z,34.30
2018-07-05T07:34:17.007Z,34.30
2018-07-05T07:36:56.684Z,34.40
2018-07-05T07:39:36.348Z,35.20
2018-07-05T07:42:03.658Z,35.60
2018-07-05T07:44:30.973Z,35.80
2018-07-05T07:46:58.274Z,36.00
2018-07-05T07:49:25.540Z,36.30
2018-07-05T07:51:52.851Z,35.60
2018-07-05T07:54:20.138Z,35.40
2018-07-05T07:56:47.450Z,35.40
2018-07-05T07:59:14.743Z,35.70
2018-07-05T08:01:42.045Z,36.20
2018-07-05T08:04:09.334Z,36.20
2018-07-05T08:06:36.618Z,36.50
2018-07-05T08:09:04.475Z,36.20
2018-07-05T08:11:31.760Z,36.00
2018-07-05T08:13:59.048Z,35.80
2018-07-05T08:18:54.014Z,36.30
2018-07-05T08:21:21.315Z,35.80
2018-07-05T08:23:48.623Z,35.40
2018-07-05T08:26:15.902Z,35.40
2018-07-05T08:28:43.225Z,35.70
2018-07-05T08:31:10.532Z,36.10
2018-07-05T08:33:37.867Z,37.40
2018-07-05T08:36:05.173Z,36.90
2018-07-05T08:38:32.457Z,36.50
2018-07-05T08:40:59.755Z,36.60
2018-07-05T08:46:30.040Z,38.00
2018-07-05T08:48:57.342Z,38.10
2018-07-05T08:51:24.640Z,38.30
2018-07-05T08:53:51.982Z,38.10
2018-07-05T08:56:19.296Z,36.70
2018-07-05T08:58:46.607Z,35.80
2018-07-05T09:01:13.900Z,35.70
2018-07-05T09:03:41.190Z,36.00
2018-07-05T09:06:08.568Z,36.80
2018-07-05T09:08:35.859Z,36.40
2018-07-05T09:13:30.736Z,36.90
2018-07-05T09:15:58.031Z,37.10
2018-07-05T09:18:25.513Z,37.30
2018-07-05T09:20:52.730Z,36.40
2018-07-05T09:23:20.063Z,36.50
2018-07-05T09:25:47.374Z,35.80
2018-07-05T09:28:14.675Z,35.00
2018-07-05T09:30:41.948Z,34.10
2018-07-05T09:33:09.246Z,33.30
2018-07-05T09:35:36.535Z,32.60
2018-07-05T09:38:03.864Z,31.50
2018-07-05T09:40:31.134Z,30.70
2018-07-05T09:42:58.423Z,30.20
2018-07-05T09:45:25.724Z,30.30
2018-07-05T09:47:53.020Z,30.00
2018-07-05T09:50:20.321Z,30.00
2018-07-05T09:52:47.672Z,29.90
2018-07-05T09:55:14.951Z,29.60
2018-07-05T09:57:42.251Z,29.40
2018-07-05T10:00:11.733Z,29.60
2018-07-05T10:02:39.906Z,29.70
2018-07-05T10:07:35.002Z,29.40
2018-07-05T10:10:02.916Z,29.10
2018-07-05T10:12:30.205Z,28.70
2018-07-05T10:14:57.521Z,28.50
2018-07-05T10:17:24.791Z,28.40
2018-07-05T10:19:52.096Z,28.50
2018-07-05T10:22:19.400Z,28.50
2018-07-05T10:24:46.711Z,28.90
2018-07-05T10:27:14.012Z,29.10
2018-07-05T10:29:53.775Z,29.20
2018-07-05T10:32:33.413Z,29.20
2018-07-05T10:35:00.806Z,29.30
2018-07-05T10:37:28.071Z,29.50
2018-07-05T10:40:07.727Z,29.60
2018-07-05T10:42:47.347Z,29.40
2018-07-05T10:45:27.002Z,29.10
2018-07-05T10:48:06.700Z,29.00
2018-07-05T10:50:46.418Z,29.10
2018-07-05T10:53:26.140Z,29.20
2018-07-05T10:56:05.830Z,29.10
2018-07-05T10:58:45.624Z,29.50
2018-07-05T11:01:25.531Z,29.70
2018-07-05T11:04:05.166Z,29.80
2018-07-05T11:06:44.910Z,29.90
2018-07-05T11:09:24.651Z,29.80
2018-07-05T11:12:04.108Z,29.90
2018-07-05T11:14:43.792Z,29.90
2018-07-05T11:17:23.350Z,29.40
2018-07-05T11:20:02.918Z,28.60
2018-07-05T11:22:42.654Z,28.30
2018-07-05T11:25:22.547Z,28.20
2018-07-05T11:28:02.388Z,28.00
2018-07-05T11:30:42.056Z,27.90
2018-07-05T11:33:21.732Z,27.90
2018-07-05T11:36:01.452Z,27.90
2018-07-05T11:38:41.140Z,28.10
2018-07-05T11:41:20.881Z,28.00
2018-07-05T11:44:00.524Z,28.20
2018-07-05T11:46:40.197Z,28.20
2018-07-05T11:49:19.829Z,28.40
2018-07-05T11:51:59.515Z,28.60
2018-07-05T11:54:39.190Z,28.30
2018-07-05T11:57:18.914Z,28.30
2018-07-05T11:59:58.559Z,28.40
2018-07-05T12:02:38.228Z,28.70
2018-07-05T12:05:17.856Z,28.90
2018-07-05T12:07:57.506Z,28.80
2018-07-05T12:10:37.251Z,28.70
2018-07-05T12:13:17.068Z,28.60
2018-07-05T12:15:56.703Z,28.50
2018-07-05T12:18:36.547Z,27.90
2018-07-05T12:21:16.208Z,27.90
2018-07-05T12:23:55.976Z,27.70
2018-07-05T12:26:35.614Z,27.90
2018-07-05T12:29:15.441Z,28.00
2018-07-05T12:31:55.218Z,27.90
2018-07-05T12:34:35.273Z,27.70
2018-07-05T12:37:16.045Z,27.10
2018-07-05T12:39:55.847Z,27.00
2018-07-05T12:42:35.521Z,27.20
2018-07-05T12:45:15.116Z,27.50
2018-07-05T12:47:54.736Z,27.70
2018-07-05T12:50:34.268Z,27.80
2018-07-05T12:53:14.025Z,27.90
2018-07-05T12:55:53.757Z,28.20
2018-07-05T12:58:33.403Z,28.00
2018-07-05T13:01:13.134Z,26.80
2018-07-05T13:03:52.781Z,26.10
2018-07-05T13:06:32.581Z,25.70
2018-07-05T13:09:12.407Z,25.40
2018-07-05T13:11:52.189Z,25.20
2018-07-05T13:14:31.870Z,24.80
2018-07-05T13:17:11.612Z,24.50
2018-07-05T13:19:51.312Z,24.20
2018-07-05T13:22:31.191Z,24.00
2018-07-05T13:25:10.922Z,23.80
2018-07-05T13:27:50.598Z,23.00
2018-07-05T13:30:30.199Z,22.70
2018-07-05T13:33:09.936Z,22.00
2018-07-05T13:35:49.505Z,21.40
2018-07-05T13:38:29.198Z,20.90
2018-07-05T13:41:08.921Z,20.70
2018-07-05T13:43:48.521Z,20.40
2018-07-05T13:46:28.150Z,20.10
2018-07-05T13:49:07.830Z,19.80
2018-07-05T13:51:47.440Z,19.60
2018-07-05T13:54:27.078Z,19.80
2018-07-05T13:57:06.875Z,20.20
2018-07-05T13:59:46.660Z,20.60
2018-07-05T14:02:26.571Z,20.80
2018-07-05T14:05:06.528Z,21.00
2018-07-05T14:07:46.249Z,21.20
2018-07-05T14:10:25.803Z,21.50
2018-07-05T14:13:05.521Z,21.80
2018-07-05T14:18:19.015Z,22.30
2018-07-05T14:20:58.606Z,22.20
2018-07-05T14:23:38.436Z,21.90
2018-07-05T14:26:18.108Z,21.60
2018-07-05T14:28:57.854Z,21.30
2018-07-05T14:31:37.912Z,21.10
2018-07-05T14:34:17.409Z,21.00
2018-07-05T14:36:57.119Z,20.90
2018-07-05T14:39:37.165Z,21.00
2018-07-05T14:42:16.765Z,21.10
2018-07-05T14:44:56.546Z,21.10
2018-07-05T14:47:36.087Z,21.30
2018-07-05T14:50:15.519Z,21.40
2018-07-05T14:52:55.381Z,21.50
2018-07-05T14:55:34.942Z,21.80
2018-07-05T14:58:14.593Z,22.00
2018-07-05T15:00:54.366Z,22.30
2018-07-05T15:03:34.072Z,22.50
2018-07-05T15:06:13.712Z,22.30
2018-07-05T15:08:53.422Z,22.30
2018-07-05T15:11:33.052Z,22.40
2018-07-05T15:14:12.981Z,22.50
2018-07-05T15:16:52.756Z,22.60
2018-07-05T15:19:32.302Z,22.60
2018-07-05T15:22:12.082Z,22.70
2018-07-05T15:24:51.710Z,22.50
2018-07-05T15:27:31.399Z,22.30
2018-07-05T15:30:11.130Z,22.30
2018-07-05T15:32:50.915Z,22.40
2018-07-05T15:35:30.719Z,22.50
2018-07-05T15:38:10.433Z,22.60
2018-07-05T15:40:50.104Z,22.70
2018-07-05T15:43:29.784Z,22.70
2018-07-05T15:46:09.492Z,22.80
2018-07-05T15:48:49.135Z,22.70
2018-07-05T15:51:28.870Z,22.80
2018-07-05T15:54:08.441Z,22.70
2018-07-05T15:56:48.119Z,22.70
2018-07-05T15:59:27.726Z,22.70
2018-07-05T16:02:07.413Z,22.50
2018-07-05T16:04:46.993Z,22.40
2018-07-05T16:07:26.534Z,22.30
2018-07-05T16:10:06.224Z,22.30
2018-07-05T16:12:45.831Z,22.30
2018-07-05T16:15:25.481Z,22.30
2018-07-05T16:18:05.100Z,22.30
2018-07-05T16:20:44.986Z,22.40
2018-07-05T16:23:24.719Z,22.50
2018-07-05T16:26:04.498Z,22.50
2018-07-05T16:28:44.283Z,22.50
2018-07-05T16:31:23.980Z,22.60
2018-07-05T16:34:03.867Z,22.60
2018-07-05T16:36:43.546Z,22.60
2018-07-05T16:39:23.180Z,22.70
2018-07-05T16:42:02.893Z,22.80
2018-07-05T16:44:42.544Z,22.90
2018-07-05T16:47:22.176Z,22.90
2018-07-05T16:50:01.868Z,22.80
2018-07-05T16:52:41.425Z,22.80
2018-07-05T16:55:21.091Z,22.80
2018-07-05T16:58:00.748Z,22.60
2018-07-05T17:00:40.481Z,22.50
2018-07-05T17:03:20.155Z,22.40
2018-07-05T17:05:59.807Z,22.30
2018-07-05T17:08:39.449Z,22.30
2018-07-05T17:11:19.071Z,22.30
2018-07-05T17:13:58.768Z,22.30
2018-07-05T17:16:38.449Z,22.10
2018-07-05T17:19:18.151Z,22.00
2018-07-05T17:21:57.835Z,21.90
2018-07-05T17:24:37.567Z,21.90
2018-07-05T17:27:17.326Z,21.50
2018-07-05T17:29:57.134Z,21.30
2018-07-05T17:32:36.866Z,21.00
2018-07-05T17:35:16.632Z,20.80
2018-07-05T17:37:56.380Z,20.60
2018-07-05T17:40:35.899Z,20.50
2018-07-05T17:43:15.485Z,20.40
2018-07-05T17:45:55.293Z,20.20
2018-07-05T17:48:35.028Z,20.20
2018-07-05T17:51:14.922Z,20.30
2018-07-05T17:53:54.718Z,20.30
2018-07-05T17:56:34.338Z,20.40
2018-07-05T17:59:14.089Z,20.40
2018-07-05T18:01:53.646Z,20.40
2018-07-05T18:04:33.404Z,20.30
2018-07-05T18:07:13.165Z,20.30
2018-07-05T18:09:53.019Z,20.30
2018-07-05T18:12:32.749Z,20.20
2018-07-05T18:15:12.482Z,20.30
2018-07-05T18:17:52.142Z,20.30
2018-07-05T18:20:31.937Z,20.30
2018-07-05T18:23:11.516Z,20.30
2018-07-05T18:25:51.246Z,20.20
2018-07-05T18:28:30.991Z,20.20
2018-07-05T18:31:10.638Z,20.00
2018-07-05T18:33:50.440Z,19.90
2018-07-05T18:36:30.244Z,19.90
2018-07-05T18:39:09.987Z,19.80
2018-07-05T18:41:50.036Z,19.80
2018-07-05T18:44:29.899Z,19.90
2018-07-05T18:47:09.865Z,19.90
2018-07-05T18:49:49.617Z,19.90
2018-07-05T18:52:29.331Z,19.80
2018-07-05T18:55:09.356Z,19.70
2018-07-05T18:57:49.145Z,19.60
2018-07-05T19:00:29.120Z,19.60
2018-07-05T19:03:09.380Z,19.50
2018-07-05T19:05:49.346Z,19.50
2018-07-05T19:08:29.548Z,19.50
2018-07-05T19:11:09.398Z,19.50
2018-07-05T19:13:49.292Z,19.40
2018-07-05T19:16:29.397Z,19.40
2018-07-05T19:19:09.064Z,19.40
2018-07-05T19:21:49.124Z,19.40
2018-07-05T19:24:28.895Z,19.30
2018-07-05T19:27:08.901Z,19.30
2018-07-05T19:29:48.827Z,19.30
2018-07-05T19:32:28.490Z,19.20
2018-07-05T19:37:42.345Z,19.20
2018-07-05T19:40:22.106Z,19.10
2018-07-05T19:43:02.082Z,19.00
2018-07-05T19:45:41.911Z,18.90
2018-07-05T19:48:21.857Z,18.90
2018-07-05T19:51:01.672Z,18.80
2018-07-05T19:53:41.332Z,18.80
2018-07-05T19:56:20.989Z,18.70
2018-07-05T20:01:34.443Z,18.70
2018-07-05T20:04:14.393Z,18.60
2018-07-05T20:06:54.310Z,18.50
2018-07-05T20:09:34.070Z,18.50
2018-07-05T20:12:13.946Z,18.50
2018-07-05T20:14:53.602Z,18.50
2018-07-05T20:17:33.195Z,18.50
2018-07-05T20:20:12.920Z,18.40
2018-07-05T20:22:52.642Z,18.40
2018-07-05T20:25:32.345Z,18.40
2018-07-05T20:28:12.241Z,18.40
2018-07-05T20:30:52.011Z,18.40
2018-07-05T20:33:31.819Z,18.40
2018-07-05T20:36:11.433Z,18.30
2018-07-05T20:38:51.204Z,18.30
2018-07-05T20:41:31.011Z,18.40
2018-07-05T20:44:10.730Z,18.40
2018-07-05T20:46:50.554Z,18.40
2018-07-05T20:49:30.221Z,18.40
2018-07-05T20:52:09.927Z,18.30
2018-07-05T20:54:49.582Z,18.30
2018-07-05T20:57:29.230Z,18.30
2018-07-05T21:00:08.882Z,18.20
2018-07-05T21:02:48.528Z,18.20
2018-07-05T21:05:28.296Z,18.20
2018-07-05T21:08:08.180Z,18.20
2018-07-05T21:10:48.052Z,18.20
2018-07-05T21:13:27.767Z,18.10
2018-07-05T21:16:07.286Z,18.00
2018-07-05T21:18:47.055Z,18.00
2018-07-05T21:21:26.729Z,18.00
2018-07-05T21:24:06.440Z,18.00
2018-07-05T21:26:46.065Z,17.90
2018-07-05T21:29:25.825Z,17.90
2018-07-05T21:32:05.552Z,17.90
2018-07-05T21:34:45.116Z,17.80
2018-07-05T21:37:24.797Z,17.80
2018-07-05T21:40:05.138Z,17.80
2018-07-05T21:42:44.823Z,17.80
2018-07-05T21:45:24.504Z,17.70
2018-07-05T21:48:04.133Z,17.70
2018-07-05T21:50:43.736Z,17.70
2018-07-05T21:53:23.451Z,17.60
2018-07-05T21:56:03.335Z,17.50
2018-07-05T21:58:42.976Z,17.50
2018-07-05T22:01:22.704Z,17.40
2018-07-05T22:04:02.404Z,17.40
2018-07-05T22:06:42.024Z,17.30
2018-07-05T22:09:21.629Z,17.30
2018-07-05T22:12:01.287Z,17.30
2018-07-05T22:14:40.901Z,17.30
2018-07-05T22:17:26.035Z,17.20
2018-07-05T22:20:11.176Z,17.20
2018-07-05T22:22:56.282Z,17.30
2018-07-05T22:26:40.858Z,17.20
2018-07-05T22:29:25.963Z,17.20
2018-07-05T22:32:05.606Z,17.20
2018-07-05T22:34:45.446Z,17.20
2018-07-05T22:37:25.143Z,17.20
2018-07-05T22:40:04.922Z,17.20
2018-07-05T22:42:44.533Z,17.20
2018-07-05T22:45:24.311Z,17.20
2018-07-05T22:48:04.039Z,17.10
2018-07-05T22:50:43.841Z,17.10
2018-07-05T22:53:23.486Z,17.10
2018-07-05T22:56:03.113Z,17.10
2018-07-05T22:58:42.770Z,17.10
2018-07-05T23:01:22.356Z,17.10
2018-07-05T23:04:01.910Z,17.10
2018-07-05T23:06:41.582Z,17.10
2018-07-05T23:09:21.353Z,17.10
2018-07-05T23:12:01.012Z,17.10
2018-07-05T23:14:40.672Z,17.20
2018-07-05T23:17:20.431Z,17.20
2018-07-05T23:20:00.161Z,17.10
2018-07-05T23:22:39.775Z,17.10
2018-07-05T23:25:19.506Z,17.00
2018-07-05T23:27:59.121Z,17.00
2018-07-05T23:30:38.978Z,17.00
2018-07-05T23:33:18.606Z,16.90
2018-07-05T23:35:58.503Z,17.00
2018-07-05T23:38:38.091Z,16.90
2018-07-05T23:41:17.723Z,16.90
2018-07-05T23:43:57.345Z,16.90
2018-07-05T23:46:37.023Z,16.90
2018-07-05T23:49:16.594Z,16.90
2018-07-05T23:51:56.218Z,16.80
2018-07-05T23:54:35.804Z,16.80
2018-07-05T23:57:15.617Z,16.90
2018-07-05T23:59:55.266Z,16.90
